Richmond, Ohio
Current Conditions -  °F | °C
As of 9:53 PM on Saturday 22 Nov 2014 (Local Time) from KHLG Reporting Station
Overcast Overcast  
Wind Chill: 10°   Ceiling: 10000
Heat Index: 10°   Visibility: 10mi
Dew Point: -2°   Wind: 12mph
Humidity: 43%   Direction: 200°SSW
Pressure: 30.1"   Gusts: NA
Location:  40.43°N, 80.77°W
Report Text: KHLG 230253Z AUTO 20010KT 10SM FEW070 SCT085 OVC100 10/M02 A3010 RMK AO2 SLP204 T01001022 56009
Loading
Personal Weather Stations






























Interactive Weather Map New forecast layout! Learn more

10-Day Weather Forecast

Advertisements
Track Severe Weather on mobile